sensor_id;sensor_type;location;lat;lon;timestamp;pressure;altitude;pressure_sealevel;temperature;humidity
39954;BME280;25631;51.516;-0.470;2024-02-04T00:02:20;102413.73;;;10.25;44.54
39954;BME280;25631;51.516;-0.470;2024-02-04T00:04:57;102415.08;;;10.32;44.64
39954;BME280;25631;51.516;-0.470;2024-02-04T00:07:33;102412.40;;;10.29;44.78
39954;BME280;25631;51.516;-0.470;2024-02-04T00:10:10;102411.42;;;10.68;44.58
39954;BME280;25631;51.516;-0.470;2024-02-04T00:12:46;102414.08;;;10.42;44.63
39954;BME280;25631;51.516;-0.470;2024-02-04T00:15:23;102413.86;;;10.08;44.86
39954;BME280;25631;51.516;-0.470;2024-02-04T00:17:59;102407.46;;;10.12;45.04
39954;BME280;25631;51.516;-0.470;2024-02-04T00:20:36;102408.24;;;10.27;44.97
39954;BME280;25631;51.516;-0.470;2024-02-04T00:23:12;102411.64;;;10.16;45.05
39954;BME280;25631;51.516;-0.470;2024-02-04T00:25:49;102421.94;;;10.20;45.02
39954;BME280;25631;51.516;-0.470;2024-02-04T00:28:25;102429.66;;;10.32;45.07
39954;BME280;25631;51.516;-0.470;2024-02-04T00:31:01;102426.51;;;10.28;45.14
39954;BME280;25631;51.516;-0.470;2024-02-04T00:33:38;102423.11;;;10.28;45.23
39954;BME280;25631;51.516;-0.470;2024-02-04T00:36:14;102427.33;;;10.40;45.14
39954;BME280;25631;51.516;-0.470;2024-02-04T00:38:51;102422.58;;;10.16;45.31
39954;BME280;25631;51.516;-0.470;2024-02-04T00:41:27;102425.28;;;10.16;45.36
39954;BME280;25631;51.516;-0.470;2024-02-04T00:44:04;102424.36;;;10.11;45.44
39954;BME280;25631;51.516;-0.470;2024-02-04T00:46:40;102430.07;;;10.06;45.45
39954;BME280;25631;51.516;-0.470;2024-02-04T00:49:17;102429.33;;;10.22;45.65
39954;BME280;25631;51.516;-0.470;2024-02-04T00:51:53;102423.63;;;10.34;45.73
39954;BME280;25631;51.516;-0.470;2024-02-04T00:54:29;102421.47;;;10.22;46.00
39954;BME280;25631;51.516;-0.470;2024-02-04T00:57:06;102418.23;;;9.95;46.27
39954;BME280;25631;51.516;-0.470;2024-02-04T00:59:42;102411.16;;;10.11;46.26
39954;BME280;25631;51.516;-0.470;2024-02-04T01:02:19;102413.92;;;10.05;46.43
39954;BME280;25631;51.516;-0.470;2024-02-04T01:04:55;102411.62;;;9.95;46.80
39954;BME280;25631;51.516;-0.470;2024-02-04T01:07:32;102412.13;;;10.03;46.72
39954;BME280;25631;51.516;-0.470;2024-02-04T01:10:09;102407.73;;;9.86;47.04
39954;BME280;25631;51.516;-0.470;2024-02-04T01:12:46;102414.68;;;10.05;46.70
39954;BME280;25631;51.516;-0.470;2024-02-04T01:15:22;102414.41;;;9.89;47.08
39954;BME280;25631;51.516;-0.470;2024-02-04T01:17:59;102414.92;;;9.81;46.92
39954;BME280;25631;51.516;-0.470;2024-02-04T01:20:35;102416.63;;;10.18;46.68
39954;BME280;25631;51.516;-0.470;2024-02-04T01:23:12;102411.76;;;10.04;46.80
39954;BME280;25631;51.516;-0.470;2024-02-04T01:25:48;102407.49;;;9.98;46.87
39954;BME280;25631;51.516;-0.470;2024-02-04T01:28:24;102399.64;;;10.09;46.91
39954;BME280;25631;51.516;-0.470;2024-02-04T01:31:01;102405.75;;;9.99;46.93
39954;BME280;25631;51.516;-0.470;2024-02-04T01:33:37;102400.90;;;9.96;46.93
39954;BME280;25631;51.516;-0.470;2024-02-04T01:36:14;102397.05;;;10.07;46.78
39954;BME280;25631;51.516;-0.470;2024-02-04T01:38:50;102399.93;;;10.05;46.92
39954;BME280;25631;51.516;-0.470;2024-02-04T01:41:26;102402.44;;;9.96;46.93
39954;BME280;25631;51.516;-0.470;2024-02-04T01:44:03;102405.28;;;9.97;47.02
39954;BME280;25631;51.516;-0.470;2024-02-04T01:46:40;102408.99;;;10.05;46.94
39954;BME280;25631;51.516;-0.470;2024-02-04T01:49:16;102405.23;;;9.92;46.94
39954;BME280;25631;51.516;-0.470;2024-02-04T01:51:53;102391.98;;;10.05;46.88
39954;BME280;25631;51.516;-0.470;2024-02-04T01:54:31;102392.21;;;10.09;46.83
39954;BME280;25631;51.516;-0.470;2024-02-04T01:57:10;102403.19;;;9.80;47.09
39954;BME280;25631;51.516;-0.470;2024-02-04T01:59:47;102394.29;;;9.95;46.96
39954;BME280;25631;51.516;-0.470;2024-02-04T02:02:25;102398.91;;;10.06;46.83
39954;BME280;25631;51.516;-0.470;2024-02-04T02:05:02;102399.41;;;10.08;46.68
39954;BME280;25631;51.516;-0.470;2024-02-04T02:07:40;102401.23;;;10.18;46.43
39954;BME280;25631;51.516;-0.470;2024-02-04T02:10:17;102398.88;;;10.02;46.51
39954;BME280;25631;51.516;-0.470;2024-02-04T02:12:58;102397.68;;;10.15;46.55
39954;BME280;25631;51.516;-0.470;2024-02-04T02:15:41;102389.51;;;10.31;46.38
39954;BME280;25631;51.516;-0.470;2024-02-04T02:18:25;102395.24;;;10.05;46.37
39954;BME280;25631;51.516;-0.470;2024-02-04T02:21:16;102399.39;;;10.30;46.41
39954;BME280;25631;51.516;-0.470;2024-02-04T02:24:03;102408.38;;;10.00;46.40
39954;BME280;25631;51.516;-0.470;2024-02-04T02:26:40;102405.89;;;10.01;46.62
39954;BME280;25631;51.516;-0.470;2024-02-04T02:29:17;102409.27;;;10.17;46.59
39954;BME280;25631;51.516;-0.470;2024-02-04T02:31:53;102414.57;;;10.07;46.69
39954;BME280;25631;51.516;-0.470;2024-02-04T02:34:30;102410.92;;;9.86;46.88
39954;BME280;25631;51.516;-0.470;2024-02-04T02:37:16;102409.06;;;10.21;46.67
39954;BME280;25631;51.516;-0.470;2024-02-04T02:39:59;102406.56;;;9.80;46.96
39954;BME280;25631;51.516;-0.470;2024-02-04T02:42:38;102406.40;;;9.96;46.90
39954;BME280;25631;51.516;-0.470;2024-02-04T02:45:20;102389.21;;;9.71;47.22
39954;BME280;25631;51.516;-0.470;2024-02-04T02:47:58;102381.46;;;9.68;47.45
39954;BME280;25631;51.516;-0.470;2024-02-04T02:50:35;102379.88;;;9.72;47.33
39954;BME280;25631;51.516;-0.470;2024-02-04T02:53:12;102374.79;;;9.64;47.31
39954;BME280;25631;51.516;-0.470;2024-02-04T02:55:48;102372.79;;;9.92;47.43
39954;BME280;25631;51.516;-0.470;2024-02-04T02:58:25;102369.24;;;9.48;47.71
39954;BME280;25631;51.516;-0.470;2024-02-04T03:01:01;102366.23;;;9.25;47.87
39954;BME280;25631;51.516;-0.470;2024-02-04T03:03:38;102369.95;;;9.55;48.04
39954;BME280;25631;51.516;-0.470;2024-02-04T03:06:14;102367.58;;;9.40;47.97
39954;BME280;25631;51.516;-0.470;2024-02-04T03:08:51;102373.35;;;9.47;48.04
39954;BME280;25631;51.516;-0.470;2024-02-04T03:11:27;102372.67;;;9.28;48.02
39954;BME280;25631;51.516;-0.470;2024-02-04T03:14:04;102380.51;;;9.46;47.92
39954;BME280;25631;51.516;-0.470;2024-02-04T03:16:43;102378.93;;;9.34;47.87
39954;BME280;25631;51.516;-0.470;2024-02-04T03:19:20;102374.69;;;9.49;47.66
39954;BME280;25631;51.516;-0.470;2024-02-04T03:21:56;102375.02;;;9.29;48.05
39954;BME280;25631;51.516;-0.470;2024-02-04T03:24:32;102368.68;;;9.21;48.26
39954;BME280;25631;51.516;-0.470;2024-02-04T03:27:09;102370.82;;;9.50;48.22
39954;BME280;25631;51.516;-0.470;2024-02-04T03:29:45;102364.47;;;9.33;48.21
39954;BME280;25631;51.516;-0.470;2024-02-04T03:32:22;102358.83;;;9.20;48.04
39954;BME280;25631;51.516;-0.470;2024-02-04T03:34:58;102361.49;;;9.41;47.86
39954;BME280;25631;51.516;-0.470;2024-02-04T03:37:34;102358.69;;;9.65;47.80
39954;BME280;25631;51.516;-0.470;2024-02-04T03:40:12;102367.69;;;9.78;47.84
39954;BME280;25631;51.516;-0.470;2024-02-04T03:42:48;102356.99;;;9.69;47.76
39954;BME280;25631;51.516;-0.470;2024-02-04T03:45:24;102358.96;;;9.45;47.82
39954;BME280;25631;51.516;-0.470;2024-02-04T03:48:01;102358.84;;;9.41;47.58
39954;BME280;25631;51.516;-0.470;2024-02-04T03:50:37;102362.45;;;9.46;47.65
39954;BME280;25631;51.516;-0.470;2024-02-04T03:53:14;102364.52;;;9.53;47.48
39954;BME280;25631;51.516;-0.470;2024-02-04T03:55:50;102354.81;;;9.59;47.50
39954;BME280;25631;51.516;-0.470;2024-02-04T03:58:26;102352.90;;;9.73;47.56
39954;BME280;25631;51.516;-0.470;2024-02-04T04:01:03;102351.38;;;9.53;47.55
39954;BME280;25631;51.516;-0.470;2024-02-04T04:03:40;102350.22;;;9.40;47.55
39954;BME280;25631;51.516;-0.470;2024-02-04T04:06:16;102347.87;;;9.60;47.29
39954;BME280;25631;51.516;-0.470;2024-02-04T04:08:53;102344.72;;;9.63;47.25
39954;BME280;25631;51.516;-0.470;2024-02-04T04:11:29;102340.86;;;9.46;47.26
39954;BME280;25631;51.516;-0.470;2024-02-04T04:14:06;102339.61;;;9.52;47.31
39954;BME280;25631;51.516;-0.470;2024-02-04T04:16:42;102339.40;;;9.51;47.26
39954;BME280;25631;51.516;-0.470;2024-02-04T04:19:19;102329.18;;;9.41;47.30
39954;BME280;25631;51.516;-0.470;2024-02-04T04:21:55;102329.37;;;9.52;47.22
39954;BME280;25631;51.516;-0.470;2024-02-04T04:24:32;102327.05;;;9.60;47.32
39954;BME280;25631;51.516;-0.470;2024-02-04T04:27:09;102322.43;;;9.22;47.30
39954;BME280;25631;51.516;-0.470;2024-02-04T04:29:45;102322.35;;;9.24;47.24
39954;BME280;25631;51.516;-0.470;2024-02-04T04:32:22;102315.25;;;9.34;47.16
39954;BME280;25631;51.516;-0.470;2024-02-04T04:34:58;102307.48;;;9.38;47.00
39954;BME280;25631;51.516;-0.470;2024-02-04T04:37:34;102303.31;;;9.52;46.97
39954;BME280;25631;51.516;-0.470;2024-02-04T04:40:12;102300.80;;;9.28;46.80
39954;BME280;25631;51.516;-0.470;2024-02-04T04:42:48;102300.49;;;9.61;46.52
39954;BME280;25631;51.516;-0.470;2024-02-04T04:45:24;102297.96;;;9.60;46.31
39954;BME280;25631;51.516;-0.470;2024-02-04T04:48:01;102294.84;;;9.93;46.20
39954;BME280;25631;51.516;-0.470;2024-02-04T04:50:37;102293.15;;;9.77;46.23
39954;BME280;25631;51.516;-0.470;2024-02-04T04:53:14;102292.08;;;9.81;46.29
39954;BME280;25631;51.516;-0.470;2024-02-04T04:55:51;102296.59;;;9.81;46.24
39954;BME280;25631;51.516;-0.470;2024-02-04T04:58:27;102292.05;;;9.84;46.23
39954;BME280;25631;51.516;-0.470;2024-02-04T05:01:05;102296.79;;;9.81;46.29
39954;BME280;25631;51.516;-0.470;2024-02-04T05:03:41;102298.85;;;9.73;46.15
39954;BME280;25631;51.516;-0.470;2024-02-04T05:06:17;102299.85;;;9.78;46.34
39954;BME280;25631;51.516;-0.470;2024-02-04T05:08:54;102297.02;;;9.77;46.51
39954;BME280;25631;51.516;-0.470;2024-02-04T05:11:30;102291.96;;;9.19;47.04
39954;BME280;25631;51.516;-0.470;2024-02-04T05:14:07;102293.96;;;9.21;47.04
39954;BME280;25631;51.516;-0.470;2024-02-04T05:16:43;102299.28;;;9.46;46.99
39954;BME280;25631;51.516;-0.470;2024-02-04T05:19:20;102298.24;;;9.18;47.13
39954;BME280;25631;51.516;-0.470;2024-02-04T05:21:56;102298.96;;;9.75;47.09
39954;BME280;25631;51.516;-0.470;2024-02-04T05:24:33;102295.41;;;9.62;46.83
39954;BME280;25631;51.516;-0.470;2024-02-04T05:27:09;102298.17;;;9.20;47.02
39954;BME280;25631;51.516;-0.470;2024-02-04T05:29:45;102294.56;;;9.26;47.06
39954;BME280;25631;51.516;-0.470;2024-02-04T05:32:22;102291.89;;;9.34;47.09
39954;BME280;25631;51.516;-0.470;2024-02-04T05:34:58;102291.07;;;9.28;47.20
39954;BME280;25631;51.516;-0.470;2024-02-04T05:37:35;102292.88;;;9.29;47.23
39954;BME280;25631;51.516;-0.470;2024-02-04T05:40:12;102294.99;;;9.47;47.27
39954;BME280;25631;51.516;-0.470;2024-02-04T05:42:48;102300.80;;;9.26;47.22
39954;BME280;25631;51.516;-0.470;2024-02-04T05:45:24;102306.19;;;9.41;47.09
39954;BME280;25631;51.516;-0.470;2024-02-04T05:48:01;102307.39;;;9.58;47.16
39954;BME280;25631;51.516;-0.470;2024-02-04T05:50:37;102302.09;;;9.62;47.01
39954;BME280;25631;51.516;-0.470;2024-02-04T05:53:13;102298.63;;;9.79;47.02
39954;BME280;25631;51.516;-0.470;2024-02-04T05:55:50;102295.00;;;9.42;47.23
39954;BME280;25631;51.516;-0.470;2024-02-04T05:58:26;102294.84;;;9.39;47.59
39954;BME280;25631;51.516;-0.470;2024-02-04T06:01:03;102288.87;;;9.23;47.51
39954;BME280;25631;51.516;-0.470;2024-02-04T06:03:41;102286.08;;;9.75;47.41
39954;BME280;25631;51.516;-0.470;2024-02-04T06:06:18;102284.38;;;9.35;47.59
39954;BME280;25631;51.516;-0.470;2024-02-04T06:08:55;102281.35;;;9.56;47.45
39954;BME280;25631;51.516;-0.470;2024-02-04T06:11:31;102279.99;;;9.29;47.44
39954;BME280;25631;51.516;-0.470;2024-02-04T06:14:07;102278.50;;;9.36;47.58
39954;BME280;25631;51.516;-0.470;2024-02-04T06:16:44;102276.24;;;9.12;47.91
39954;BME280;25631;51.516;-0.470;2024-02-04T06:19:20;102278.79;;;9.15;47.73
39954;BME280;25631;51.516;-0.470;2024-02-04T06:21:57;102277.57;;;9.69;47.83
39954;BME280;25631;51.516;-0.470;2024-02-04T06:24:33;102275.75;;;9.37;48.00
39954;BME280;25631;51.516;-0.470;2024-02-04T06:27:11;102273.59;;;9.34;47.88
39954;BME280;25631;51.516;-0.470;2024-02-04T06:29:47;102262.54;;;9.14;47.91
39954;BME280;25631;51.516;-0.470;2024-02-04T06:32:23;102260.29;;;9.15;48.04
39954;BME280;25631;51.516;-0.470;2024-02-04T06:35:00;102256.57;;;9.02;48.18
39954;BME280;25631;51.516;-0.470;2024-02-04T06:37:36;102258.14;;;9.25;48.28
39954;BME280;25631;51.516;-0.470;2024-02-04T06:40:13;102254.55;;;9.38;48.18
39954;BME280;25631;51.516;-0.470;2024-02-04T06:42:50;102254.84;;;8.97;48.22
39954;BME280;25631;51.516;-0.470;2024-02-04T06:45:26;102252.03;;;9.24;48.25
39954;BME280;25631;51.516;-0.470;2024-02-04T06:48:03;102251.53;;;9.05;48.35
39954;BME280;25631;51.516;-0.470;2024-02-04T06:50:40;102253.68;;;9.22;48.16
39954;BME280;25631;51.516;-0.470;2024-02-04T06:53:16;102253.18;;;9.04;48.28
39954;BME280;25631;51.516;-0.470;2024-02-04T06:55:53;102242.03;;;9.03;48.18
39954;BME280;25631;51.516;-0.470;2024-02-04T06:58:29;102244.29;;;9.00;48.21
39954;BME280;25631;51.516;-0.470;2024-02-04T07:01:05;102244.11;;;9.10;48.13
39954;BME280;25631;51.516;-0.470;2024-02-04T07:03:42;102246.27;;;9.51;48.24
39954;BME280;25631;51.516;-0.470;2024-02-04T07:06:18;102245.39;;;9.19;48.46
39954;BME280;25631;51.516;-0.470;2024-02-04T07:08:54;102245.95;;;9.20;48.24
39954;BME280;25631;51.516;-0.470;2024-02-04T07:11:31;102249.25;;;9.61;48.26
39954;BME280;25631;51.516;-0.470;2024-02-04T07:14:07;102246.76;;;9.07;48.31
39954;BME280;25631;51.516;-0.470;2024-02-04T07:16:44;102246.64;;;9.25;48.35
39954;BME280;25631;51.516;-0.470;2024-02-04T07:19:20;102243.04;;;9.08;48.46
39954;BME280;25631;51.516;-0.470;2024-02-04T07:21:57;102234.63;;;9.20;48.64
39954;BME280;25631;51.516;-0.470;2024-02-04T07:24:33;102238.00;;;9.30;48.53
39954;BME280;25631;51.516;-0.470;2024-02-04T07:27:09;102239.35;;;9.28;48.59
39954;BME280;25631;51.516;-0.470;2024-02-04T07:29:46;102241.84;;;9.47;48.38
39954;BME280;25631;51.516;-0.470;2024-02-04T07:32:22;102244.02;;;9.14;48.31
39954;BME280;25631;51.516;-0.470;2024-02-04T07:34:59;102241.77;;;9.65;48.10
39954;BME280;25631;51.516;-0.470;2024-02-04T07:37:35;102246.79;;;9.20;48.18
39954;BME280;25631;51.516;-0.470;2024-02-04T07:40:12;102247.64;;;9.21;48.35
39954;BME280;25631;51.516;-0.470;2024-02-04T07:42:49;102247.21;;;8.99;48.37
39954;BME280;25631;51.516;-0.470;2024-02-04T07:45:25;102246.24;;;9.13;48.23
39954;BME280;25631;51.516;-0.470;2024-02-04T07:48:01;102250.18;;;9.02;48.39
39954;BME280;25631;51.516;-0.470;2024-02-04T07:50:38;102252.80;;;9.17;48.05
39954;BME280;25631;51.516;-0.470;2024-02-04T07:53:14;102258.78;;;9.36;48.21
39954;BME280;25631;51.516;-0.470;2024-02-04T07:55:51;102260.57;;;9.28;48.36
39954;BME280;25631;51.516;-0.470;2024-02-04T07:58:27;102261.40;;;9.31;48.48
39954;BME280;25631;51.516;-0.470;2024-02-04T08:01:04;102264.07;;;9.14;48.60
39954;BME280;25631;51.516;-0.470;2024-02-04T08:03:40;102262.67;;;9.16;48.63
39954;BME280;25631;51.516;-0.470;2024-02-04T08:06:17;102266.40;;;9.09;48.61
39954;BME280;25631;51.516;-0.470;2024-02-04T08:08:53;102264.72;;;9.26;48.45
39954;BME280;25631;51.516;-0.470;2024-02-04T08:11:30;102258.29;;;9.56;48.51
39954;BME280;25631;51.516;-0.470;2024-02-04T08:14:06;102257.34;;;9.18;48.56
39954;BME280;25631;51.516;-0.470;2024-02-04T08:16:43;102262.41;;;9.03;48.72
39954;BME280;25631;51.516;-0.470;2024-02-04T08:19:19;102257.05;;;8.89;48.72
39954;BME280;25631;51.516;-0.470;2024-02-04T08:21:56;102254.71;;;9.18;48.59
39954;BME280;25631;51.516;-0.470;2024-02-04T08:24:32;102254.92;;;9.21;48.46
39954;BME280;25631;51.516;-0.470;2024-02-04T08:27:09;102254.06;;;9.35;48.54
39954;BME280;25631;51.516;-0.470;2024-02-04T08:29:45;102247.90;;;9.43;48.56
39954;BME280;25631;51.516;-0.470;2024-02-04T08:32:22;102247.41;;;9.18;48.49
39954;BME280;25631;51.516;-0.470;2024-02-04T08:34:58;102249.69;;;9.27;48.57
39954;BME280;25631;51.516;-0.470;2024-02-04T08:37:35;102251.23;;;9.39;48.54
39954;BME280;25631;51.516;-0.470;2024-02-04T08:40:11;102247.30;;;9.58;48.37
39954;BME280;25631;51.516;-0.470;2024-02-04T08:42:48;102248.68;;;9.15;48.56
39954;BME280;25631;51.516;-0.470;2024-02-04T08:45:24;102252.82;;;9.40;48.66
39954;BME280;25631;51.516;-0.470;2024-02-04T08:48:01;102254.32;;;9.12;48.95
39954;BME280;25631;51.516;-0.470;2024-02-04T08:50:37;102259.05;;;8.93;49.16
39954;BME280;25631;51.516;-0.470;2024-02-04T08:53:13;102256.52;;;9.20;49.14
39954;BME280;25631;51.516;-0.470;2024-02-04T08:55:50;102254.83;;;9.10;49.05
39954;BME280;25631;51.516;-0.470;2024-02-04T08:58:26;102254.74;;;9.21;49.06
39954;BME280;25631;51.516;-0.470;2024-02-04T09:01:03;102258.25;;;9.22;49.05
39954;BME280;25631;51.516;-0.470;2024-02-04T09:03:40;102261.91;;;9.35;48.97
39954;BME280;25631;51.516;-0.470;2024-02-04T09:06:16;102263.86;;;9.19;48.81
39954;BME280;25631;51.516;-0.470;2024-02-04T09:08:52;102259.62;;;9.40;48.89
39954;BME280;25631;51.516;-0.470;2024-02-04T09:11:29;102258.89;;;9.33;48.79
39954;BME280;25631;51.516;-0.470;2024-02-04T09:14:06;102267.69;;;9.44;48.75
39954;BME280;25631;51.516;-0.470;2024-02-04T09:16:42;102269.54;;;9.22;48.80
39954;BME280;25631;51.516;-0.470;2024-02-04T09:19:19;102257.97;;;9.47;48.62
39954;BME280;25631;51.516;-0.470;2024-02-04T09:21:55;102259.90;;;9.68;48.48
39954;BME280;25631;51.516;-0.470;2024-02-04T09:24:31;102254.53;;;9.59;48.44
39954;BME280;25631;51.516;-0.470;2024-02-04T09:27:08;102259.57;;;9.58;48.40
39954;BME280;25631;51.516;-0.470;2024-02-04T09:29:44;102264.66;;;9.85;48.12
39954;BME280;25631;51.516;-0.470;2024-02-04T09:32:21;102263.75;;;9.78;48.08
39954;BME280;25631;51.516;-0.470;2024-02-04T09:34:57;102273.11;;;9.89;48.02
39954;BME280;25631;51.516;-0.470;2024-02-04T09:37:34;102271.66;;;9.81;47.89
39954;BME280;25631;51.516;-0.470;2024-02-04T09:40:11;102275.22;;;9.87;47.84
39954;BME280;25631;51.516;-0.470;2024-02-04T09:42:48;102274.64;;;9.62;48.13
39954;BME280;25631;51.516;-0.470;2024-02-04T09:45:25;102273.68;;;9.57;48.05
39954;BME280;25631;51.516;-0.470;2024-02-04T09:48:02;102270.22;;;9.55;48.02
39954;BME280;25631;51.516;-0.470;2024-02-04T09:50:39;102273.17;;;9.53;48.08
39954;BME280;25631;51.516;-0.470;2024-02-04T09:53:21;102281.06;;;9.75;47.96
39954;BME280;25631;51.516;-0.470;2024-02-04T09:55:58;102278.99;;;9.71;47.86
39954;BME280;25631;51.516;-0.470;2024-02-04T09:58:35;102278.09;;;9.67;47.89
39954;BME280;25631;51.516;-0.470;2024-02-04T10:01:12;102277.19;;;9.84;47.64
39954;BME280;25631;51.516;-0.470;2024-02-04T10:03:49;102276.81;;;9.78;47.55
39954;BME280;25631;51.516;-0.470;2024-02-04T10:06:25;102282.21;;;9.75;47.47
39954;BME280;25631;51.516;-0.470;2024-02-04T10:09:02;102278.95;;;9.91;47.27
39954;BME280;25631;51.516;-0.470;2024-02-04T10:11:38;102275.17;;;10.08;47.26
39954;BME280;25631;51.516;-0.470;2024-02-04T10:14:16;102280.17;;;9.95;47.09
39954;BME280;25631;51.516;-0.470;2024-02-04T10:16:53;102277.73;;;9.74;47.08
39954;BME280;25631;51.516;-0.470;2024-02-04T10:19:30;102271.98;;;9.97;46.79
39954;BME280;25631;51.516;-0.470;2024-02-04T10:22:06;102269.45;;;10.15;46.61
39954;BME280;25631;51.516;-0.470;2024-02-04T10:24:42;102269.02;;;10.18;46.56
39954;BME280;25631;51.516;-0.470;2024-02-04T10:27:19;102265.23;;;10.30;46.39
39954;BME280;25631;51.516;-0.470;2024-02-04T10:29:56;102268.52;;;10.14;46.23
39954;BME280;25631;51.516;-0.470;2024-02-04T10:32:33;102276.43;;;10.18;46.18
39954;BME280;25631;51.516;-0.470;2024-02-04T10:35:10;102268.95;;;10.30;46.03
39954;BME280;25631;51.516;-0.470;2024-02-04T10:37:46;102273.02;;;10.30;45.93
39954;BME280;25631;51.516;-0.470;2024-02-04T10:40:23;102273.03;;;10.12;45.83
39954;BME280;25631;51.516;-0.470;2024-02-04T10:43:04;102276.22;;;10.37;45.75
39954;BME280;25631;51.516;-0.470;2024-02-04T10:45:42;102276.69;;;10.45;45.49
39954;BME280;25631;51.516;-0.470;2024-02-04T10:48:22;102284.20;;;10.52;45.44
39954;BME280;25631;51.516;-0.470;2024-02-04T10:51:01;102285.86;;;10.37;45.32
39954;BME280;25631;51.516;-0.470;2024-02-04T10:53:39;102285.85;;;10.61;45.17
39954;BME280;25631;51.516;-0.470;2024-02-04T10:56:21;102286.11;;;11.02;44.97
39954;BME280;25631;51.516;-0.470;2024-02-04T10:58:58;102281.87;;;10.33;44.89
39954;BME280;25631;51.516;-0.470;2024-02-04T11:01:36;102281.14;;;10.81;44.77
39954;BME280;25631;51.516;-0.470;2024-02-04T11:04:14;102272.53;;;10.83;44.59
39954;BME280;25631;51.516;-0.470;2024-02-04T11:06:53;102275.91;;;10.67;44.50
39954;BME280;25631;51.516;-0.470;2024-02-04T11:09:30;102284.20;;;10.90;44.34
39954;BME280;25631;51.516;-0.470;2024-02-04T11:12:11;102292.04;;;11.01;44.18
39954;BME280;25631;51.516;-0.470;2024-02-04T11:14:52;102293.90;;;11.00;44.11
39954;BME280;25631;51.516;-0.470;2024-02-04T11:17:50;102288.53;;;10.81;44.10
39954;BME280;25631;51.516;-0.470;2024-02-04T11:20:45;102285.13;;;10.85;43.86
39954;BME280;25631;51.516;-0.470;2024-02-04T11:23:35;102281.37;;;10.76;43.67
39954;BME280;25631;51.516;-0.470;2024-02-04T11:26:13;102276.86;;;10.91;43.77
39954;BME280;25631;51.516;-0.470;2024-02-04T11:28:51;102274.70;;;10.81;43.99
39954;BME280;25631;51.516;-0.470;2024-02-04T11:31:29;102271.14;;;10.84;43.98
39954;BME280;25631;51.516;-0.470;2024-02-04T11:34:06;102258.59;;;10.80;43.90
39954;BME280;25631;51.516;-0.470;2024-02-04T11:36:42;102262.56;;;10.86;43.26
39954;BME280;25631;51.516;-0.470;2024-02-04T11:39:19;102263.60;;;10.84;43.47
39954;BME280;25631;51.516;-0.470;2024-02-04T11:41:55;102252.60;;;11.03;43.41
39954;BME280;25631;51.516;-0.470;2024-02-04T11:44:32;102266.38;;;11.10;43.19
39954;BME280;25631;51.516;-0.470;2024-02-04T11:47:08;102266.79;;;11.03;43.05
39954;BME280;25631;51.516;-0.470;2024-02-04T11:49:53;102255.12;;;10.99;43.08
39954;BME280;25631;51.516;-0.470;2024-02-04T11:52:30;102253.24;;;11.33;42.82
39954;BME280;25631;51.516;-0.470;2024-02-04T11:55:13;102258.83;;;11.28;42.84
39954;BME280;25631;51.516;-0.470;2024-02-04T11:57:49;102253.31;;;11.33;42.82
39954;BME280;25631;51.516;-0.470;2024-02-04T12:00:26;102254.38;;;11.41;42.77
39954;BME280;25631;51.516;-0.470;2024-02-04T12:03:03;102244.34;;;11.41;42.71
39954;BME280;25631;51.516;-0.470;2024-02-04T12:05:41;102246.07;;;11.45;42.66
39954;BME280;25631;51.516;-0.470;2024-02-04T12:08:19;102251.09;;;11.10;42.80
39954;BME280;25631;51.516;-0.470;2024-02-04T12:10:56;102247.18;;;11.17;42.75
39954;BME280;25631;51.516;-0.470;2024-02-04T12:13:34;102245.28;;;11.29;42.66
39954;BME280;25631;51.516;-0.470;2024-02-04T12:16:11;102245.82;;;11.02;42.87
39954;BME280;25631;51.516;-0.470;2024-02-04T12:18:48;102236.39;;;11.11;42.88
39954;BME280;25631;51.516;-0.470;2024-02-04T12:21:25;102222.24;;;11.40;42.66
39954;BME280;25631;51.516;-0.470;2024-02-04T12:24:02;102228.50;;;11.22;42.70
39954;BME280;25631;51.516;-0.470;2024-02-04T12:26:40;102231.52;;;11.43;42.67
39954;BME280;25631;51.516;-0.470;2024-02-04T12:29:16;102229.39;;;11.40;42.85
39954;BME280;25631;51.516;-0.470;2024-02-04T12:31:58;102227.54;;;11.42;42.88
39954;BME280;25631;51.516;-0.470;2024-02-04T12:34:34;102231.73;;;10.91;43.22
39954;BME280;25631;51.516;-0.470;2024-02-04T12:37:11;102232.74;;;11.24;43.13
39954;BME280;25631;51.516;-0.470;2024-02-04T12:39:47;102232.14;;;11.33;42.98
39954;BME280;25631;51.516;-0.470;2024-02-04T12:42:24;102230.39;;;11.35;43.18
39954;BME280;25631;51.516;-0.470;2024-02-04T12:45:00;102223.31;;;11.47;43.21
39954;BME280;25631;51.516;-0.470;2024-02-04T12:47:37;102224.64;;;11.47;43.36
39954;BME280;25631;51.516;-0.470;2024-02-04T12:50:13;102224.67;;;11.25;43.57
39954;BME280;25631;51.516;-0.470;2024-02-04T12:53:02;102217.67;;;10.84;43.91
39954;BME280;25631;51.516;-0.470;2024-02-04T12:55:39;102207.83;;;11.24;44.09
39954;BME280;25631;51.516;-0.470;2024-02-04T12:58:15;102218.53;;;11.21;44.17
39954;BME280;25631;51.516;-0.470;2024-02-04T13:01:00;102212.39;;;11.13;44.26
39954;BME280;25631;51.516;-0.470;2024-02-04T13:03:36;102213.31;;;11.24;44.15
39954;BME280;25631;51.516;-0.470;2024-02-04T13:06:13;102204.90;;;11.14;44.22
39954;BME280;25631;51.516;-0.470;2024-02-04T13:08:54;102201.02;;;11.14;44.06
39954;BME280;25631;51.516;-0.470;2024-02-04T13:11:31;102205.65;;;11.35;44.13
39954;BME280;25631;51.516;-0.470;2024-02-04T13:14:07;102202.71;;;11.09;44.31
39954;BME280;25631;51.516;-0.470;2024-02-04T13:16:44;102205.22;;;11.04;44.62
39954;BME280;25631;51.516;-0.470;2024-02-04T13:19:20;102201.90;;;11.05;44.66
39954;BME280;25631;51.516;-0.470;2024-02-04T13:21:57;102198.43;;;10.81;45.01
39954;BME280;25631;51.516;-0.470;2024-02-04T13:24:33;102198.66;;;11.15;45.07
39954;BME280;25631;51.516;-0.470;2024-02-04T13:27:10;102200.17;;;11.20;45.18
39954;BME280;25631;51.516;-0.470;2024-02-04T13:29:47;102199.29;;;10.73;45.63
39954;BME280;25631;51.516;-0.470;2024-02-04T13:32:23;102192.69;;;10.77;45.81
39954;BME280;25631;51.516;-0.470;2024-02-04T13:35:00;102189.94;;;10.81;45.85
39954;BME280;25631;51.516;-0.470;2024-02-04T13:37:38;102193.56;;;11.00;45.84